sensor_id;sensor_type;location;lat;lon;timestamp;P1;durP1;ratioP1;P2;durP2;ratioP2
8887;SDS011;4480;52.370;9.748;2023-12-04T00:00:58;18.17;;;12.40;;
8887;SDS011;4480;52.370;9.748;2023-12-04T00:03:24;16.15;;;11.93;;
8887;SDS011;4480;52.370;9.748;2023-12-04T00:05:51;21.55;;;11.73;;
8887;SDS011;4480;52.370;9.748;2023-12-04T00:08:18;24.10;;;12.32;;
8887;SDS011;4480;52.370;9.748;2023-12-04T00:10:45;17.15;;;10.13;;
8887;SDS011;4480;52.370;9.748;2023-12-04T00:13:13;17.33;;;12.30;;
8887;SDS011;4480;52.370;9.748;2023-12-04T00:15:39;19.35;;;10.40;;
8887;SDS011;4480;52.370;9.748;2023-12-04T00:18:06;22.88;;;13.38;;
8887;SDS011;4480;52.370;9.748;2023-12-04T00:20:33;17.63;;;11.60;;
8887;SDS011;4480;52.370;9.748;2023-12-04T00:23:00;18.50;;;13.05;;
8887;SDS011;4480;52.370;9.748;2023-12-04T00:25:27;16.48;;;9.88;;
8887;SDS011;4480;52.370;9.748;2023-12-04T00:27:54;20.58;;;11.55;;
8887;SDS011;4480;52.370;9.748;2023-12-04T00:30:22;21.58;;;12.85;;
8887;SDS011;4480;52.370;9.748;2023-12-04T00:32:49;17.00;;;11.95;;
8887;SDS011;4480;52.370;9.748;2023-12-04T00:35:15;15.45;;;10.90;;
8887;SDS011;4480;52.370;9.748;2023-12-04T00:37:42;18.75;;;12.50;;
8887;SDS011;4480;52.370;9.748;2023-12-04T00:40:09;18.13;;;12.95;;
8887;SDS011;4480;52.370;9.748;2023-12-04T00:42:36;18.33;;;11.60;;
8887;SDS011;4480;52.370;9.748;2023-12-04T00:45:03;17.38;;;11.55;;
8887;SDS011;4480;52.370;9.748;2023-12-04T00:47:32;16.88;;;11.35;;
8887;SDS011;4480;52.370;9.748;2023-12-04T00:49:59;21.55;;;13.02;;
8887;SDS011;4480;52.370;9.748;2023-12-04T00:52:26;18.02;;;11.98;;
8887;SDS011;4480;52.370;9.748;2023-12-04T00:54:53;18.27;;;11.07;;
8887;SDS011;4480;52.370;9.748;2023-12-04T00:57:19;17.48;;;10.95;;
8887;SDS011;4480;52.370;9.748;2023-12-04T00:59:46;20.60;;;12.85;;
8887;SDS011;4480;52.370;9.748;2023-12-04T01:02:13;18.30;;;11.82;;
8887;SDS011;4480;52.370;9.748;2023-12-04T01:04:41;19.05;;;12.27;;
8887;SDS011;4480;52.370;9.748;2023-12-04T01:07:08;21.65;;;11.90;;
8887;SDS011;4480;52.370;9.748;2023-12-04T01:09:35;18.90;;;12.63;;
8887;SDS011;4480;52.370;9.748;2023-12-04T01:12:02;17.40;;;11.13;;
8887;SDS011;4480;52.370;9.748;2023-12-04T01:14:29;17.10;;;11.45;;
8887;SDS011;4480;52.370;9.748;2023-12-04T01:16:56;19.50;;;11.73;;
8887;SDS011;4480;52.370;9.748;2023-12-04T01:19:23;19.67;;;11.25;;
8887;SDS011;4480;52.370;9.748;2023-12-04T01:21:51;16.42;;;11.13;;
8887;SDS011;4480;52.370;9.748;2023-12-04T01:24:18;18.67;;;9.90;;
8887;SDS011;4480;52.370;9.748;2023-12-04T01:26:45;17.95;;;9.85;;
8887;SDS011;4480;52.370;9.748;2023-12-04T01:29:12;15.43;;;11.02;;
8887;SDS011;4480;52.370;9.748;2023-12-04T01:31:38;14.90;;;10.00;;
8887;SDS011;4480;52.370;9.748;2023-12-04T01:34:05;19.23;;;11.35;;
8887;SDS011;4480;52.370;9.748;2023-12-04T01:36:32;16.88;;;10.50;;
8887;SDS011;4480;52.370;9.748;2023-12-04T01:39:00;16.35;;;9.90;;
8887;SDS011;4480;52.370;9.748;2023-12-04T01:41:28;17.00;;;11.60;;
8887;SDS011;4480;52.370;9.748;2023-12-04T01:43:55;16.92;;;10.45;;
8887;SDS011;4480;52.370;9.748;2023-12-04T01:46:22;17.05;;;10.57;;
8887;SDS011;4480;52.370;9.748;2023-12-04T01:48:48;15.57;;;10.05;;
8887;SDS011;4480;52.370;9.748;2023-12-04T01:51:16;17.98;;;9.88;;
8887;SDS011;4480;52.370;9.748;2023-12-04T01:53:44;15.00;;;9.80;;
8887;SDS011;4480;52.370;9.748;2023-12-04T01:56:12;15.57;;;9.57;;
8887;SDS011;4480;52.370;9.748;2023-12-04T01:58:41;12.88;;;8.95;;
8887;SDS011;4480;52.370;9.748;2023-12-04T02:01:08;15.60;;;10.60;;
8887;SDS011;4480;52.370;9.748;2023-12-04T02:03:36;14.90;;;10.40;;
8887;SDS011;4480;52.370;9.748;2023-12-04T02:06:04;16.52;;;10.10;;
8887;SDS011;4480;52.370;9.748;2023-12-04T02:08:31;13.85;;;9.70;;
8887;SDS011;4480;52.370;9.748;2023-12-04T02:10:58;15.13;;;9.52;;
8887;SDS011;4480;52.370;9.748;2023-12-04T02:13:27;15.90;;;8.70;;
8887;SDS011;4480;52.370;9.748;2023-12-04T02:15:54;15.52;;;9.38;;
8887;SDS011;4480;52.370;9.748;2023-12-04T02:18:23;14.27;;;9.45;;
8887;SDS011;4480;52.370;9.748;2023-12-04T02:20:51;16.45;;;10.23;;
8887;SDS011;4480;52.370;9.748;2023-12-04T02:23:19;13.15;;;8.93;;
8887;SDS011;4480;52.370;9.748;2023-12-04T02:25:47;15.75;;;9.85;;
8887;SDS011;4480;52.370;9.748;2023-12-04T02:28:14;19.10;;;10.80;;
8887;SDS011;4480;52.370;9.748;2023-12-04T02:30:43;13.63;;;9.32;;
8887;SDS011;4480;52.370;9.748;2023-12-04T02:33:11;16.45;;;10.27;;
8887;SDS011;4480;52.370;9.748;2023-12-04T02:35:39;13.48;;;9.23;;
8887;SDS011;4480;52.370;9.748;2023-12-04T02:38:08;15.23;;;10.18;;
8887;SDS011;4480;52.370;9.748;2023-12-04T02:40:35;18.40;;;10.40;;
8887;SDS011;4480;52.370;9.748;2023-12-04T02:43:03;15.65;;;10.25;;
8887;SDS011;4480;52.370;9.748;2023-12-04T02:45:30;15.30;;;9.50;;
8887;SDS011;4480;52.370;9.748;2023-12-04T02:47:57;18.25;;;10.25;;
8887;SDS011;4480;52.370;9.748;2023-12-04T02:50:24;14.85;;;9.23;;
8887;SDS011;4480;52.370;9.748;2023-12-04T02:52:50;17.27;;;10.70;;
8887;SDS011;4480;52.370;9.748;2023-12-04T02:55:17;16.98;;;9.23;;
8887;SDS011;4480;52.370;9.748;2023-12-04T02:57:44;19.48;;;11.52;;
8887;SDS011;4480;52.370;9.748;2023-12-04T03:00:12;15.18;;;9.52;;
8887;SDS011;4480;52.370;9.748;2023-12-04T03:02:39;15.00;;;9.82;;
8887;SDS011;4480;52.370;9.748;2023-12-04T03:05:06;14.20;;;8.82;;
8887;SDS011;4480;52.370;9.748;2023-12-04T03:07:33;14.65;;;10.00;;
8887;SDS011;4480;52.370;9.748;2023-12-04T03:10:00;14.77;;;9.15;;
8887;SDS011;4480;52.370;9.748;2023-12-04T03:12:26;14.80;;;9.25;;
8887;SDS011;4480;52.370;9.748;2023-12-04T03:14:53;15.55;;;10.50;;
8887;SDS011;4480;52.370;9.748;2023-12-04T03:17:21;14.75;;;8.60;;
8887;SDS011;4480;52.370;9.748;2023-12-04T03:19:48;13.25;;;10.18;;
8887;SDS011;4480;52.370;9.748;2023-12-04T03:22:15;14.70;;;10.65;;
8887;SDS011;4480;52.370;9.748;2023-12-04T03:24:43;15.38;;;9.45;;
8887;SDS011;4480;52.370;9.748;2023-12-04T03:27:10;11.98;;;8.60;;
8887;SDS011;4480;52.370;9.748;2023-12-04T03:29:37;17.83;;;10.15;;
8887;SDS011;4480;52.370;9.748;2023-12-04T03:32:04;13.85;;;9.07;;
8887;SDS011;4480;52.370;9.748;2023-12-04T03:34:32;16.73;;;9.57;;
8887;SDS011;4480;52.370;9.748;2023-12-04T03:36:59;15.27;;;9.50;;
8887;SDS011;4480;52.370;9.748;2023-12-04T03:39:26;13.05;;;9.07;;
8887;SDS011;4480;52.370;9.748;2023-12-04T03:41:53;13.25;;;9.10;;
8887;SDS011;4480;52.370;9.748;2023-12-04T03:44:19;15.27;;;10.20;;
8887;SDS011;4480;52.370;9.748;2023-12-04T03:46:46;12.00;;;9.57;;
8887;SDS011;4480;52.370;9.748;2023-12-04T03:49:13;18.73;;;10.65;;
8887;SDS011;4480;52.370;9.748;2023-12-04T03:51:41;19.58;;;10.48;;
8887;SDS011;4480;52.370;9.748;2023-12-04T03:54:08;13.02;;;8.93;;
8887;SDS011;4480;52.370;9.748;2023-12-04T03:56:35;17.00;;;9.60;;
8887;SDS011;4480;52.370;9.748;2023-12-04T03:59:01;16.95;;;9.60;;
8887;SDS011;4480;52.370;9.748;2023-12-04T04:01:28;13.65;;;9.23;;
8887;SDS011;4480;52.370;9.748;2023-12-04T04:03:55;13.50;;;9.73;;
8887;SDS011;4480;52.370;9.748;2023-12-04T04:06:22;13.25;;;8.95;;
8887;SDS011;4480;52.370;9.748;2023-12-04T04:08:50;12.23;;;8.60;;
8887;SDS011;4480;52.370;9.748;2023-12-04T04:12:41;15.75;;;9.80;;
8887;SDS011;4480;52.370;9.748;2023-12-04T04:15:08;13.73;;;9.80;;
8887;SDS011;4480;52.370;9.748;2023-12-04T04:17:35;11.90;;;8.73;;
8887;SDS011;4480;52.370;9.748;2023-12-04T04:20:02;14.25;;;9.40;;
8887;SDS011;4480;52.370;9.748;2023-12-04T04:22:29;14.57;;;9.68;;
8887;SDS011;4480;52.370;9.748;2023-12-04T04:24:59;21.23;;;8.95;;
8887;SDS011;4480;52.370;9.748;2023-12-04T04:27:26;14.93;;;10.23;;
8887;SDS011;4480;52.370;9.748;2023-12-04T04:29:54;17.23;;;9.63;;
8887;SDS011;4480;52.370;9.748;2023-12-04T04:32:21;14.57;;;10.23;;
8887;SDS011;4480;52.370;9.748;2023-12-04T04:34:48;12.20;;;8.80;;
8887;SDS011;4480;52.370;9.748;2023-12-04T04:37:15;11.88;;;8.95;;
8887;SDS011;4480;52.370;9.748;2023-12-04T04:39:42;13.85;;;9.10;;
8887;SDS011;4480;52.370;9.748;2023-12-04T04:42:09;15.40;;;9.93;;
8887;SDS011;4480;52.370;9.748;2023-12-04T04:44:35;13.40;;;9.55;;
8887;SDS011;4480;52.370;9.748;2023-12-04T04:47:04;12.75;;;9.55;;
8887;SDS011;4480;52.370;9.748;2023-12-04T04:49:30;11.90;;;8.70;;
8887;SDS011;4480;52.370;9.748;2023-12-04T04:51:57;13.63;;;9.85;;
8887;SDS011;4480;52.370;9.748;2023-12-04T04:54:24;14.30;;;9.50;;
8887;SDS011;4480;52.370;9.748;2023-12-04T04:56:51;15.27;;;8.55;;
8887;SDS011;4480;52.370;9.748;2023-12-04T04:59:17;13.55;;;8.48;;
8887;SDS011;4480;52.370;9.748;2023-12-04T05:01:44;12.45;;;8.80;;
8887;SDS011;4480;52.370;9.748;2023-12-04T05:04:12;14.90;;;8.23;;
8887;SDS011;4480;52.370;9.748;2023-12-04T05:06:39;15.57;;;10.10;;
8887;SDS011;4480;52.370;9.748;2023-12-04T05:09:06;16.50;;;9.63;;
8887;SDS011;4480;52.370;9.748;2023-12-04T05:11:33;13.40;;;9.38;;
8887;SDS011;4480;52.370;9.748;2023-12-04T05:14:00;13.95;;;9.68;;
8887;SDS011;4480;52.370;9.748;2023-12-04T05:16:26;12.13;;;8.35;;
8887;SDS011;4480;52.370;9.748;2023-12-04T05:18:53;14.07;;;9.95;;
8887;SDS011;4480;52.370;9.748;2023-12-04T05:21:21;14.80;;;8.88;;
8887;SDS011;4480;52.370;9.748;2023-12-04T05:23:48;14.30;;;8.35;;
8887;SDS011;4480;52.370;9.748;2023-12-04T05:26:15;12.32;;;8.63;;
8887;SDS011;4480;52.370;9.748;2023-12-04T05:28:42;14.38;;;8.93;;
8887;SDS011;4480;52.370;9.748;2023-12-04T05:31:08;12.65;;;9.40;;
8887;SDS011;4480;52.370;9.748;2023-12-04T05:33:35;14.13;;;8.73;;
8887;SDS011;4480;52.370;9.748;2023-12-04T05:36:02;12.15;;;8.65;;
8887;SDS011;4480;52.370;9.748;2023-12-04T05:38:31;11.27;;;8.63;;
8887;SDS011;4480;52.370;9.748;2023-12-04T05:40:58;15.02;;;7.78;;
8887;SDS011;4480;52.370;9.748;2023-12-04T05:43:25;13.40;;;8.80;;
8887;SDS011;4480;52.370;9.748;2023-12-04T05:45:52;15.45;;;9.52;;
8887;SDS011;4480;52.370;9.748;2023-12-04T05:48:18;12.07;;;8.93;;
8887;SDS011;4480;52.370;9.748;2023-12-04T05:50:45;15.38;;;8.30;;
8887;SDS011;4480;52.370;9.748;2023-12-04T05:53:12;14.77;;;9.43;;
8887;SDS011;4480;52.370;9.748;2023-12-04T05:55:40;15.35;;;8.88;;
8887;SDS011;4480;52.370;9.748;2023-12-04T05:58:07;9.05;;;7.88;;
8887;SDS011;4480;52.370;9.748;2023-12-04T06:00:34;13.35;;;8.93;;
8887;SDS011;4480;52.370;9.748;2023-12-04T06:03:00;12.73;;;8.65;;
8887;SDS011;4480;52.370;9.748;2023-12-04T06:05:27;11.35;;;8.05;;
8887;SDS011;4480;52.370;9.748;2023-12-04T06:07:54;13.30;;;8.57;;
8887;SDS011;4480;52.370;9.748;2023-12-04T06:10:23;11.13;;;8.18;;
8887;SDS011;4480;52.370;9.748;2023-12-04T06:12:51;18.60;;;9.88;;
8887;SDS011;4480;52.370;9.748;2023-12-04T06:15:17;12.68;;;8.50;;
8887;SDS011;4480;52.370;9.748;2023-12-04T06:17:44;14.85;;;9.40;;
8887;SDS011;4480;52.370;9.748;2023-12-04T06:20:11;11.73;;;7.45;;
8887;SDS011;4480;52.370;9.748;2023-12-04T06:22:38;14.05;;;8.65;;
8887;SDS011;4480;52.370;9.748;2023-12-04T06:25:06;12.55;;;9.15;;
8887;SDS011;4480;52.370;9.748;2023-12-04T06:27:34;13.25;;;9.25;;
8887;SDS011;4480;52.370;9.748;2023-12-04T06:30:03;13.38;;;8.95;;
8887;SDS011;4480;52.370;9.748;2023-12-04T06:32:30;14.82;;;8.82;;
8887;SDS011;4480;52.370;9.748;2023-12-04T06:34:58;12.40;;;8.68;;
8887;SDS011;4480;52.370;9.748;2023-12-04T06:37:25;12.20;;;9.48;;
8887;SDS011;4480;52.370;9.748;2023-12-04T06:39:52;12.80;;;8.77;;
8887;SDS011;4480;52.370;9.748;2023-12-04T06:42:20;19.33;;;9.13;;
8887;SDS011;4480;52.370;9.748;2023-12-04T06:44:47;12.00;;;9.15;;
8887;SDS011;4480;52.370;9.748;2023-12-04T06:47:16;14.40;;;9.73;;
8887;SDS011;4480;52.370;9.748;2023-12-04T06:49:48;15.45;;;9.85;;
8887;SDS011;4480;52.370;9.748;2023-12-04T06:52:15;16.55;;;9.57;;
8887;SDS011;4480;52.370;9.748;2023-12-04T06:54:41;12.65;;;8.88;;
8887;SDS011;4480;52.370;9.748;2023-12-04T06:57:08;10.95;;;8.93;;
8887;SDS011;4480;52.370;9.748;2023-12-04T06:59:35;12.75;;;8.70;;
8887;SDS011;4480;52.370;9.748;2023-12-04T07:02:02;15.48;;;9.93;;
8887;SDS011;4480;52.370;9.748;2023-12-04T07:04:31;14.25;;;9.38;;
8887;SDS011;4480;52.370;9.748;2023-12-04T07:06:58;12.98;;;8.45;;
8887;SDS011;4480;52.370;9.748;2023-12-04T07:09:30;15.90;;;9.63;;
8887;SDS011;4480;52.370;9.748;2023-12-04T07:11:57;13.95;;;9.00;;
8887;SDS011;4480;52.370;9.748;2023-12-04T07:14:24;15.45;;;9.48;;
8887;SDS011;4480;52.370;9.748;2023-12-04T07:16:50;13.20;;;9.65;;
8887;SDS011;4480;52.370;9.748;2023-12-04T07:19:17;13.20;;;9.45;;
8887;SDS011;4480;52.370;9.748;2023-12-04T07:21:46;14.52;;;10.15;;
8887;SDS011;4480;52.370;9.748;2023-12-04T07:24:13;16.75;;;10.60;;
8887;SDS011;4480;52.370;9.748;2023-12-04T07:26:41;12.60;;;9.23;;
8887;SDS011;4480;52.370;9.748;2023-12-04T07:29:08;15.93;;;9.57;;
8887;SDS011;4480;52.370;9.748;2023-12-04T07:31:35;12.73;;;9.65;;
8887;SDS011;4480;52.370;9.748;2023-12-04T07:34:02;12.85;;;9.25;;
8887;SDS011;4480;52.370;9.748;2023-12-04T07:36:29;13.63;;;8.90;;
8887;SDS011;4480;52.370;9.748;2023-12-04T07:38:57;14.57;;;9.23;;
8887;SDS011;4480;52.370;9.748;2023-12-04T07:41:24;13.20;;;9.15;;
8887;SDS011;4480;52.370;9.748;2023-12-04T07:43:51;14.98;;;9.40;;
8887;SDS011;4480;52.370;9.748;2023-12-04T07:46:19;14.75;;;10.23;;
8887;SDS011;4480;52.370;9.748;2023-12-04T07:48:46;13.43;;;10.55;;
8887;SDS011;4480;52.370;9.748;2023-12-04T07:51:13;15.30;;;9.05;;
8887;SDS011;4480;52.370;9.748;2023-12-04T07:53:40;14.38;;;10.18;;
8887;SDS011;4480;52.370;9.748;2023-12-04T07:56:08;14.95;;;10.13;;
8887;SDS011;4480;52.370;9.748;2023-12-04T07:58:37;12.40;;;9.40;;
8887;SDS011;4480;52.370;9.748;2023-12-04T08:01:04;12.73;;;9.10;;
8887;SDS011;4480;52.370;9.748;2023-12-04T08:03:31;14.13;;;10.13;;
8887;SDS011;4480;52.370;9.748;2023-12-04T08:05:58;12.25;;;8.98;;
8887;SDS011;4480;52.370;9.748;2023-12-04T08:08:25;12.98;;;9.65;;
8887;SDS011;4480;52.370;9.748;2023-12-04T08:10:52;12.85;;;9.52;;
8887;SDS011;4480;52.370;9.748;2023-12-04T08:13:20;13.60;;;9.23;;
8887;SDS011;4480;52.370;9.748;2023-12-04T08:15:47;13.80;;;9.38;;
8887;SDS011;4480;52.370;9.748;2023-12-04T08:18:14;12.95;;;9.27;;
8887;SDS011;4480;52.370;9.748;2023-12-04T08:20:41;14.65;;;9.95;;
8887;SDS011;4480;52.370;9.748;2023-12-04T08:23:08;11.55;;;9.45;;
8887;SDS011;4480;52.370;9.748;2023-12-04T08:25:34;12.60;;;9.43;;
8887;SDS011;4480;52.370;9.748;2023-12-04T08:28:03;15.43;;;10.50;;
8887;SDS011;4480;52.370;9.748;2023-12-04T08:30:32;13.18;;;10.40;;
8887;SDS011;4480;52.370;9.748;2023-12-04T08:32:59;14.55;;;9.70;;
8887;SDS011;4480;52.370;9.748;2023-12-04T08:35:25;16.75;;;10.52;;
8887;SDS011;4480;52.370;9.748;2023-12-04T08:37:52;11.90;;;8.63;;
8887;SDS011;4480;52.370;9.748;2023-12-04T08:40:19;12.10;;;9.55;;
8887;SDS011;4480;52.370;9.748;2023-12-04T08:42:46;13.07;;;8.48;;
8887;SDS011;4480;52.370;9.748;2023-12-04T08:45:12;14.32;;;9.73;;
8887;SDS011;4480;52.370;9.748;2023-12-04T08:47:41;15.20;;;9.77;;
8887;SDS011;4480;52.370;9.748;2023-12-04T08:50:07;11.95;;;8.30;;
8887;SDS011;4480;52.370;9.748;2023-12-04T08:52:35;12.43;;;8.80;;
8887;SDS011;4480;52.370;9.748;2023-12-04T08:55:01;14.40;;;9.13;;
8887;SDS011;4480;52.370;9.748;2023-12-04T08:57:29;13.52;;;8.95;;
8887;SDS011;4480;52.370;9.748;2023-12-04T08:59:56;13.27;;;8.93;;
8887;SDS011;4480;52.370;9.748;2023-12-04T09:02:23;13.18;;;8.88;;
8887;SDS011;4480;52.370;9.748;2023-12-04T09:04:51;12.90;;;9.35;;
8887;SDS011;4480;52.370;9.748;2023-12-04T09:07:18;14.38;;;8.48;;
8887;SDS011;4480;52.370;9.748;2023-12-04T09:09:45;12.60;;;9.48;;
8887;SDS011;4480;52.370;9.748;2023-12-04T09:12:12;11.43;;;8.40;;
8887;SDS011;4480;52.370;9.748;2023-12-04T09:14:39;12.70;;;9.27;;
8887;SDS011;4480;52.370;9.748;2023-12-04T09:17:06;12.25;;;8.90;;
8887;SDS011;4480;52.370;9.748;2023-12-04T09:19:33;11.90;;;8.50;;
8887;SDS011;4480;52.370;9.748;2023-12-04T09:22:01;13.35;;;8.85;;
8887;SDS011;4480;52.370;9.748;2023-12-04T09:24:28;12.93;;;9.90;;
8887;SDS011;4480;52.370;9.748;2023-12-04T09:26:56;11.70;;;8.77;;
8887;SDS011;4480;52.370;9.748;2023-12-04T09:29:22;12.48;;;8.85;;
8887;SDS011;4480;52.370;9.748;2023-12-04T09:31:50;10.80;;;8.50;;
8887;SDS011;4480;52.370;9.748;2023-12-04T09:34:17;10.43;;;8.40;;
8887;SDS011;4480;52.370;9.748;2023-12-04T09:36:45;10.00;;;8.80;;
8887;SDS011;4480;52.370;9.748;2023-12-04T09:39:14;10.30;;;7.85;;
8887;SDS011;4480;52.370;9.748;2023-12-04T09:41:42;14.13;;;9.50;;
8887;SDS011;4480;52.370;9.748;2023-12-04T09:44:10;12.15;;;9.23;;
8887;SDS011;4480;52.370;9.748;2023-12-04T09:46:37;14.63;;;8.93;;
8887;SDS011;4480;52.370;9.748;2023-12-04T09:49:04;17.35;;;10.70;;
8887;SDS011;4480;52.370;9.748;2023-12-04T09:51:32;13.60;;;9.07;;
8887;SDS011;4480;52.370;9.748;2023-12-04T09:54:00;13.73;;;9.45;;
8887;SDS011;4480;52.370;9.748;2023-12-04T09:56:31;15.60;;;9.90;;
8887;SDS011;4480;52.370;9.748;2023-12-04T09:58:59;13.60;;;9.63;;
8887;SDS011;4480;52.370;9.748;2023-12-04T10:01:27;16.85;;;9.77;;
8887;SDS011;4480;52.370;9.748;2023-12-04T10:03:55;9.35;;;7.88;;
8887;SDS011;4480;52.370;9.748;2023-12-04T10:06:23;15.30;;;9.70;;
8887;SDS011;4480;52.370;9.748;2023-12-04T10:08:54;16.08;;;9.20;;
8887;SDS011;4480;52.370;9.748;2023-12-04T10:11:22;17.60;;;10.05;;
8887;SDS011;4480;52.370;9.748;2023-12-04T10:13:50;11.55;;;8.80;;
8887;SDS011;4480;52.370;9.748;2023-12-04T10:16:31;13.60;;;9.73;;
8887;SDS011;4480;52.370;9.748;2023-12-04T10:19:09;14.95;;;9.57;;
8887;SDS011;4480;52.370;9.748;2023-12-04T10:21:41;11.82;;;8.32;;
8887;SDS011;4480;52.370;9.748;2023-12-04T10:24:08;12.82;;;8.90;;
8887;SDS011;4480;52.370;9.748;2023-12-04T10:26:35;17.35;;;10.10;;
8887;SDS011;4480;52.370;9.748;2023-12-04T10:29:04;13.55;;;8.63;;
8887;SDS011;4480;52.370;9.748;2023-12-04T10:31:31;12.32;;;8.25;;
8887;SDS011;4480;52.370;9.748;2023-12-04T10:33:59;14.10;;;8.75;;
8887;SDS011;4480;52.370;9.748;2023-12-04T10:36:26;17.73;;;10.18;;
8887;SDS011;4480;52.370;9.748;2023-12-04T10:38:57;12.13;;;8.38;;
8887;SDS011;4480;52.370;9.748;2023-12-04T10:41:25;11.88;;;8.90;;
8887;SDS011;4480;52.370;9.748;2023-12-04T10:43:51;12.00;;;8.50;;
8887;SDS011;4480;52.370;9.748;2023-12-04T10:46:20;12.65;;;9.10;;
8887;SDS011;4480;52.370;9.748;2023-12-04T10:48:47;9.93;;;7.78;;
8887;SDS011;4480;52.370;9.748;2023-12-04T10:51:14;13.93;;;8.60;;
8887;SDS011;4480;52.370;9.748;2023-12-04T10:53:43;12.88;;;9.23;;
8887;SDS011;4480;52.370;9.748;2023-12-04T10:56:10;15.93;;;10.45;;
8887;SDS011;4480;52.370;9.748;2023-12-04T10:58:45;9.65;;;7.60;;
8887;SDS011;4480;52.370;9.748;2023-12-04T11:01:16;12.50;;;9.00;;
8887;SDS011;4480;52.370;9.748;2023-12-04T11:03:47;10.35;;;7.38;;
8887;SDS011;4480;52.370;9.748;2023-12-04T11:06:16;12.60;;;8.32;;
8887;SDS011;4480;52.370;9.748;2023-12-04T11:08:44;10.10;;;7.63;;
8887;SDS011;4480;52.370;9.748;2023-12-04T11:11:15;11.05;;;8.88;;
8887;SDS011;4480;52.370;9.748;2023-12-04T11:13:47;11.40;;;8.13;;
8887;SDS011;4480;52.370;9.748;2023-12-04T11:16:18;10.20;;;8.00;;
8887;SDS011;4480;52.370;9.748;2023-12-04T11:18:51;10.32;;;8.10;;
8887;SDS011;4480;52.370;9.748;2023-12-04T11:21:22;8.70;;;7.03;;
8887;SDS011;4480;52.370;9.748;2023-12-04T11:23:50;11.45;;;8.00;;
8887;SDS011;4480;52.370;9.748;2023-12-04T11:26:17;8.70;;;7.22;;
8887;SDS011;4480;52.370;9.748;2023-12-04T11:28:44;10.80;;;8.20;;
8887;SDS011;4480;52.370;9.748;2023-12-04T11:31:13;10.73;;;7.28;;
8887;SDS011;4480;52.370;9.748;2023-12-04T11:33:41;9.98;;;7.20;;
8887;SDS011;4480;52.370;9.748;2023-12-04T11:36:11;10.05;;;7.50;;
8887;SDS011;4480;52.370;9.748;2023-12-04T11:38:40;12.27;;;7.80;;
8887;SDS011;4480;52.370;9.748;2023-12-04T11:41:14;8.90;;;6.68;;
8887;SDS011;4480;52.370;9.748;2023-12-04T11:43:42;8.68;;;7.05;;
8887;SDS011;4480;52.370;9.748;2023-12-04T11:46:09;9.13;;;7.35;;
8887;SDS011;4480;52.370;9.748;2023-12-04T11:48:37;10.85;;;8.07;;
8887;SDS011;4480;52.370;9.748;2023-12-04T11:51:05;9.88;;;7.13;;
8887;SDS011;4480;52.370;9.748;2023-12-04T11:53:38;9.63;;;6.75;;
8887;SDS011;4480;52.370;9.748;2023-12-04T11:56:09;10.82;;;8.93;;
8887;SDS011;4480;52.370;9.748;2023-12-04T11:58:41;11.85;;;8.25;;
8887;SDS011;4480;52.370;9.748;2023-12-04T12:01:08;11.00;;;7.38;;
8887;SDS011;4480;52.370;9.748;2023-12-04T12:03:35;10.48;;;7.93;;
8887;SDS011;4480;52.370;9.748;2023-12-04T12:06:03;11.95;;;7.25;;
8887;SDS011;4480;52.370;9.748;2023-12-04T12:08:30;10.90;;;8.20;;
8887;SDS011;4480;52.370;9.748;2023-12-04T12:10:58;8.95;;;6.95;;
8887;SDS011;4480;52.370;9.748;2023-12-04T12:13:25;10.25;;;7.13;;
8887;SDS011;4480;52.370;9.748;2023-12-04T12:15:52;11.65;;;6.45;;
8887;SDS011;4480;52.370;9.748;2023-12-04T12:18:21;8.13;;;7.05;;
8887;SDS011;4480;52.370;9.748;2023-12-04T12:20:48;9.63;;;7.40;;
8887;SDS011;4480;52.370;9.748;2023-12-04T12:23:15;8.70;;;6.82;;
8887;SDS011;4480;52.370;9.748;2023-12-04T12:25:42;9.23;;;7.03;;
8887;SDS011;4480;52.370;9.748;2023-12-04T12:28:11;9.65;;;7.03;;
8887;SDS011;4480;52.370;9.748;2023-12-04T12:30:37;9.23;;;7.13;;
8887;SDS011;4480;52.370;9.748;2023-12-04T12:33:04;7.70;;;6.18;;
8887;SDS011;4480;52.370;9.748;2023-12-04T12:35:31;11.35;;;6.90;;
8887;SDS011;4480;52.370;9.748;2023-12-04T12:37:58;10.68;;;8.63;;
8887;SDS011;4480;52.370;9.748;2023-12-04T12:40:27;7.57;;;5.75;;
8887;SDS011;4480;52.370;9.748;2023-12-04T12:43:02;9.10;;;6.40;;
8887;SDS011;4480;52.370;9.748;2023-12-04T12:45:39;10.07;;;7.00;;
8887;SDS011;4480;52.370;9.748;2023-12-04T12:48:07;11.70;;;7.45;;
8887;SDS011;4480;52.370;9.748;2023-12-04T12:50:36;8.35;;;7.15;;
8887;SDS011;4480;52.370;9.748;2023-12-04T12:53:03;11.00;;;7.72;;
8887;SDS011;4480;52.370;9.748;2023-12-04T12:55:30;8.88;;;6.40;;
8887;SDS011;4480;52.370;9.748;2023-12-04T12:57:57;13.93;;;9.00;;
8887;SDS011;4480;52.370;9.748;2023-12-04T13:00:24;10.88;;;6.88;;
8887;SDS011;4480;52.370;9.748;2023-12-04T13:02:54;10.23;;;6.22;;
8887;SDS011;4480;52.370;9.748;2023-12-04T13:05:21;9.02;;;7.07;;
8887;SDS011;4480;52.370;9.748;2023-12-04T13:07:48;10.40;;;6.35;;
8887;SDS011;4480;52.370;9.748;2023-12-04T13:10:14;14.95;;;7.55;;
8887;SDS011;4480;52.370;9.748;2023-12-04T13:12:41;8.98;;;7.38;;
8887;SDS011;4480;52.370;9.748;2023-12-04T13:15:08;11.73;;;7.30;;
8887;SDS011;4480;52.370;9.748;2023-12-04T13:17:36;22.65;;;15.55;;
8887;SDS011;4480;52.370;9.748;2023-12-04T13:20:05;17.77;;;11.25;;
8887;SDS011;4480;52.370;9.748;2023-12-04T13:22:36;15.23;;;9.52;;
8887;SDS011;4480;52.370;9.748;2023-12-04T13:25:04;18.20;;;10.38;;
8887;SDS011;4480;52.370;9.748;2023-12-04T13:27:32;16.05;;;6.60;;
8887;SDS011;4480;52.370;9.748;2023-12-04T13:29:59;7.95;;;6.15;;
8887;SDS011;4480;52.370;9.748;2023-12-04T13:32:25;14.80;;;6.40;;
8887;SDS011;4480;52.370;9.748;2023-12-04T13:34:52;6.63;;;5.88;;
8887;SDS011;4480;52.370;9.748;2023-12-04T13:37:21;8.20;;;6.25;;
8887;SDS011;4480;52.370;9.748;2023-12-04T13:39:48;9.00;;;6.20;;
8887;SDS011;4480;52.370;9.748;2023-12-04T13:42:22;9.60;;;6.82;;
8887;SDS011;4480;52.370;9.748;2023-12-04T13:45:07;11.77;;;7.07;;
8887;SDS011;4480;52.370;9.748;2023-12-04T13:47:35;7.40;;;5.97;;
8887;SDS011;4480;52.370;9.748;2023-12-04T13:50:02;10.50;;;6.32;;
8887;SDS011;4480;52.370;9.748;2023-12-04T13:52:30;12.63;;;7.10;;
8887;SDS011;4480;52.370;9.748;2023-12-04T13:54:59;10.27;;;6.43;;
8887;SDS011;4480;52.370;9.748;2023-12-04T13:57:25;11.38;;;6.35;;
8887;SDS011;4480;52.370;9.748;2023-12-04T13:59:57;9.50;;;5.88;;
8887;SDS011;4480;52.370;9.748;2023-12-04T14:02:24;13.02;;;6.30;;
8887;SDS011;4480;52.370;9.748;2023-12-04T14:04:51;8.95;;;7.25;;
8887;SDS011;4480;52.370;9.748;2023-12-04T14:07:18;10.52;;;6.65;;
8887;SDS011;4480;52.370;9.748;2023-12-04T14:09:47;9.93;;;6.55;;
8887;SDS011;4480;52.370;9.748;2023-12-04T14:12:13;13.70;;;7.70;;
8887;SDS011;4480;52.370;9.748;2023-12-04T14:14:41;14.05;;;6.88;;
8887;SDS011;4480;52.370;9.748;2023-12-04T14:17:08;12.20;;;6.82;;
8887;SDS011;4480;52.370;9.748;2023-12-04T14:19:36;8.15;;;5.72;;
8887;SDS011;4480;52.370;9.748;2023-12-04T14:22:04;10.57;;;6.00;;
8887;SDS011;4480;52.370;9.748;2023-12-04T14:24:31;8.65;;;5.50;;
8887;SDS011;4480;52.370;9.748;2023-12-04T14:27:01;10.85;;;5.63;;
8887;SDS011;4480;52.370;9.748;2023-12-04T14:29:30;8.55;;;5.40;;
8887;SDS011;4480;52.370;9.748;2023-12-04T14:31:57;11.88;;;5.80;;
8887;SDS011;4480;52.370;9.748;2023-12-04T14:34:23;9.35;;;5.60;;
8887;SDS011;4480;52.370;9.748;2023-12-04T14:36:50;9.38;;;5.57;;
8887;SDS011;4480;52.370;9.748;2023-12-04T14:39:17;7.18;;;5.90;;
8887;SDS011;4480;52.370;9.748;2023-12-04T14:41:44;7.93;;;5.78;;
8887;SDS011;4480;52.370;9.748;2023-12-04T14:44:12;10.93;;;5.05;;
8887;SDS011;4480;52.370;9.748;2023-12-04T14:46:39;9.77;;;4.78;;
8887;SDS011;4480;52.370;9.748;2023-12-04T14:49:06;13.52;;;5.72;;
8887;SDS011;4480;52.370;9.748;2023-12-04T14:51:32;10.82;;;5.30;;
8887;SDS011;4480;52.370;9.748;2023-12-04T14:53:59;12.32;;;4.50;;
8887;SDS011;4480;52.370;9.748;2023-12-04T14:56:41;14.82;;;5.70;;
8887;SDS011;4480;52.370;9.748;2023-12-04T14:59:27;15.25;;;10.27;;
8887;SDS011;4480;52.370;9.748;2023-12-04T15:02:28;21.10;;;13.52;;
8887;SDS011;4480;52.370;9.748;2023-12-04T15:05:11;22.83;;;12.60;;